sensor_id;sensor_type;location;lat;lon;timestamp;P1;durP1;ratioP1;P2;durP2;ratioP2
55497;SDS011;41357;52.806;18.268;2022-12-10T00:02:25;36.28;;;14.40;;
55497;SDS011;41357;52.806;18.268;2022-12-10T00:04:51;40.55;;;15.85;;
55497;SDS011;41357;52.806;18.268;2022-12-10T00:07:17;43.10;;;16.80;;
55497;SDS011;41357;52.806;18.268;2022-12-10T00:09:43;40.08;;;15.50;;
55497;SDS011;41357;52.806;18.268;2022-12-10T00:12:09;45.53;;;16.95;;
55497;SDS011;41357;52.806;18.268;2022-12-10T00:14:36;48.97;;;18.98;;
55497;SDS011;41357;52.806;18.268;2022-12-10T00:17:02;43.22;;;17.98;;
55497;SDS011;41357;52.806;18.268;2022-12-10T00:19:28;23.10;;;9.57;;
55497;SDS011;41357;52.806;18.268;2022-12-10T00:21:54;42.83;;;16.40;;
55497;SDS011;41357;52.806;18.268;2022-12-10T00:24:20;43.67;;;17.35;;
55497;SDS011;41357;52.806;18.268;2022-12-10T00:26:46;61.08;;;19.13;;
55497;SDS011;41357;52.806;18.268;2022-12-10T00:29:12;43.50;;;17.05;;
55497;SDS011;41357;52.806;18.268;2022-12-10T00:31:39;44.15;;;17.85;;
55497;SDS011;41357;52.806;18.268;2022-12-10T00:34:06;49.40;;;19.38;;
55497;SDS011;41357;52.806;18.268;2022-12-10T00:36:34;44.05;;;17.77;;
55497;SDS011;41357;52.806;18.268;2022-12-10T00:39:00;48.47;;;18.80;;
55497;SDS011;41357;52.806;18.268;2022-12-10T00:41:27;55.13;;;20.88;;
55497;SDS011;41357;52.806;18.268;2022-12-10T00:43:53;52.60;;;18.13;;
55497;SDS011;41357;52.806;18.268;2022-12-10T00:46:19;42.22;;;16.38;;
55497;SDS011;41357;52.806;18.268;2022-12-10T00:48:46;40.67;;;15.35;;
55497;SDS011;41357;52.806;18.268;2022-12-10T00:51:19;45.75;;;18.88;;
55497;SDS011;41357;52.806;18.268;2022-12-10T00:53:47;43.35;;;17.27;;
55497;SDS011;41357;52.806;18.268;2022-12-10T00:56:15;43.88;;;16.63;;
55497;SDS011;41357;52.806;18.268;2022-12-10T00:58:41;51.65;;;19.60;;
55497;SDS011;41357;52.806;18.268;2022-12-10T01:01:12;44.47;;;17.05;;
55497;SDS011;41357;52.806;18.268;2022-12-10T01:03:38;41.13;;;15.38;;
55497;SDS011;41357;52.806;18.268;2022-12-10T01:06:09;44.28;;;17.23;;
55497;SDS011;41357;52.806;18.268;2022-12-10T01:08:35;46.13;;;17.35;;
55497;SDS011;41357;52.806;18.268;2022-12-10T01:11:02;48.28;;;17.10;;
55497;SDS011;41357;52.806;18.268;2022-12-10T01:13:28;51.10;;;18.52;;
55497;SDS011;41357;52.806;18.268;2022-12-10T01:15:54;46.47;;;17.27;;
55497;SDS011;41357;52.806;18.268;2022-12-10T01:18:20;48.97;;;19.23;;
55497;SDS011;41357;52.806;18.268;2022-12-10T01:20:46;49.38;;;19.58;;
55497;SDS011;41357;52.806;18.268;2022-12-10T01:23:12;44.17;;;17.20;;
55497;SDS011;41357;52.806;18.268;2022-12-10T01:25:38;52.28;;;20.08;;
55497;SDS011;41357;52.806;18.268;2022-12-10T01:28:05;48.42;;;17.85;;
55497;SDS011;41357;52.806;18.268;2022-12-10T01:30:31;52.63;;;19.52;;
55497;SDS011;41357;52.806;18.268;2022-12-10T01:32:58;57.33;;;22.25;;
55497;SDS011;41357;52.806;18.268;2022-12-10T01:35:24;56.75;;;20.30;;
55497;SDS011;41357;52.806;18.268;2022-12-10T01:37:50;54.78;;;20.80;;
55497;SDS011;41357;52.806;18.268;2022-12-10T01:40:16;55.33;;;20.40;;
55497;SDS011;41357;52.806;18.268;2022-12-10T01:42:42;54.67;;;20.70;;
55497;SDS011;41357;52.806;18.268;2022-12-10T01:45:10;55.83;;;20.90;;
55497;SDS011;41357;52.806;18.268;2022-12-10T01:47:36;43.50;;;17.48;;
55497;SDS011;41357;52.806;18.268;2022-12-10T01:50:04;48.95;;;17.80;;
55497;SDS011;41357;52.806;18.268;2022-12-10T01:52:30;44.47;;;17.77;;
55497;SDS011;41357;52.806;18.268;2022-12-10T01:54:57;53.40;;;20.55;;
55497;SDS011;41357;52.806;18.268;2022-12-10T01:57:23;47.90;;;20.95;;
55497;SDS011;41357;52.806;18.268;2022-12-10T01:59:54;52.58;;;20.98;;
55497;SDS011;41357;52.806;18.268;2022-12-10T02:10:15;61.25;;;21.08;;
55497;SDS011;41357;52.806;18.268;2022-12-10T02:15:19;56.85;;;19.73;;
55497;SDS011;41357;52.806;18.268;2022-12-10T02:17:58;41.47;;;16.48;;
55497;SDS011;41357;52.806;18.268;2022-12-10T02:20:29;36.58;;;16.00;;
55497;SDS011;41357;52.806;18.268;2022-12-10T02:22:57;45.13;;;18.05;;
55497;SDS011;41357;52.806;18.268;2022-12-10T02:25:32;48.53;;;16.60;;
55497;SDS011;41357;52.806;18.268;2022-12-10T02:28:05;47.40;;;18.42;;
55497;SDS011;41357;52.806;18.268;2022-12-10T02:30:33;43.35;;;17.85;;
55497;SDS011;41357;52.806;18.268;2022-12-10T02:33:00;45.92;;;16.38;;
55497;SDS011;41357;52.806;18.268;2022-12-10T02:35:28;40.00;;;14.90;;
55497;SDS011;41357;52.806;18.268;2022-12-10T02:38:05;41.67;;;16.50;;
55497;SDS011;41357;52.806;18.268;2022-12-10T02:40:32;34.22;;;15.88;;
55497;SDS011;41357;52.806;18.268;2022-12-10T02:43:00;38.63;;;16.50;;
55497;SDS011;41357;52.806;18.268;2022-12-10T02:45:27;46.00;;;16.35;;
55497;SDS011;41357;52.806;18.268;2022-12-10T02:47:55;37.03;;;16.70;;
55497;SDS011;41357;52.806;18.268;2022-12-10T02:50:22;44.63;;;16.23;;
55497;SDS011;41357;52.806;18.268;2022-12-10T02:52:48;47.08;;;18.75;;
55497;SDS011;41357;52.806;18.268;2022-12-10T02:55:15;44.17;;;17.55;;
55497;SDS011;41357;52.806;18.268;2022-12-10T03:00:08;46.88;;;16.83;;
55497;SDS011;41357;52.806;18.268;2022-12-10T03:08:05;41.75;;;18.73;;
55497;SDS011;41357;52.806;18.268;2022-12-10T03:10:35;39.15;;;16.77;;
55497;SDS011;41357;52.806;18.268;2022-12-10T03:13:06;44.58;;;17.73;;
55497;SDS011;41357;52.806;18.268;2022-12-10T03:15:34;46.53;;;16.27;;
55497;SDS011;41357;52.806;18.268;2022-12-10T03:18:02;48.03;;;17.08;;
55497;SDS011;41357;52.806;18.268;2022-12-10T03:20:29;42.85;;;15.73;;
55497;SDS011;41357;52.806;18.268;2022-12-10T03:22:57;38.53;;;14.82;;
55497;SDS011;41357;52.806;18.268;2022-12-10T03:25:24;48.55;;;16.08;;
55497;SDS011;41357;52.806;18.268;2022-12-10T03:27:51;42.03;;;16.45;;
55497;SDS011;41357;52.806;18.268;2022-12-10T03:30:19;34.72;;;14.50;;
55497;SDS011;41357;52.806;18.268;2022-12-10T03:32:45;35.75;;;13.45;;
55497;SDS011;41357;52.806;18.268;2022-12-10T03:35:12;39.22;;;13.98;;
55497;SDS011;41357;52.806;18.268;2022-12-10T03:37:38;37.42;;;15.63;;
55497;SDS011;41357;52.806;18.268;2022-12-10T03:40:05;45.60;;;16.83;;
55497;SDS011;41357;52.806;18.268;2022-12-10T03:42:31;45.13;;;16.73;;
55497;SDS011;41357;52.806;18.268;2022-12-10T03:44:58;36.92;;;15.52;;
55497;SDS011;41357;52.806;18.268;2022-12-10T03:47:24;39.85;;;15.73;;
55497;SDS011;41357;52.806;18.268;2022-12-10T03:49:50;45.53;;;15.80;;
55497;SDS011;41357;52.806;18.268;2022-12-10T03:52:16;48.97;;;17.75;;
55497;SDS011;41357;52.806;18.268;2022-12-10T03:54:42;47.30;;;17.95;;
55497;SDS011;41357;52.806;18.268;2022-12-10T03:57:08;44.70;;;16.35;;
55497;SDS011;41357;52.806;18.268;2022-12-10T03:59:34;45.08;;;17.25;;
55497;SDS011;41357;52.806;18.268;2022-12-10T04:02:01;51.95;;;19.02;;
55497;SDS011;41357;52.806;18.268;2022-12-10T04:04:27;54.65;;;18.35;;
55497;SDS011;41357;52.806;18.268;2022-12-10T04:06:53;44.67;;;16.52;;
55497;SDS011;41357;52.806;18.268;2022-12-10T04:09:19;47.63;;;18.25;;
55497;SDS011;41357;52.806;18.268;2022-12-10T04:11:46;51.72;;;20.77;;
55497;SDS011;41357;52.806;18.268;2022-12-10T04:14:12;48.17;;;18.35;;
55497;SDS011;41357;52.806;18.268;2022-12-10T04:16:57;56.08;;;19.33;;
55497;SDS011;41357;52.806;18.268;2022-12-10T04:19:23;51.72;;;18.45;;
55497;SDS011;41357;52.806;18.268;2022-12-10T04:21:50;54.22;;;19.60;;
55497;SDS011;41357;52.806;18.268;2022-12-10T04:24:35;48.67;;;17.17;;
55497;SDS011;41357;52.806;18.268;2022-12-10T04:29:46;51.95;;;18.70;;
55497;SDS011;41357;52.806;18.268;2022-12-10T04:32:13;54.35;;;20.83;;
55497;SDS011;41357;52.806;18.268;2022-12-10T04:34:39;54.15;;;19.55;;
55497;SDS011;41357;52.806;18.268;2022-12-10T04:37:05;53.75;;;19.73;;
55497;SDS011;41357;52.806;18.268;2022-12-10T04:39:32;51.47;;;22.52;;
55497;SDS011;41357;52.806;18.268;2022-12-10T04:41:59;41.20;;;17.38;;
55497;SDS011;41357;52.806;18.268;2022-12-10T04:44:25;58.33;;;20.60;;
55497;SDS011;41357;52.806;18.268;2022-12-10T04:46:52;47.72;;;19.58;;
55497;SDS011;41357;52.806;18.268;2022-12-10T04:49:18;55.65;;;21.20;;
55497;SDS011;41357;52.806;18.268;2022-12-10T04:51:44;58.83;;;20.63;;
55497;SDS011;41357;52.806;18.268;2022-12-10T04:54:11;56.42;;;19.75;;
55497;SDS011;41357;52.806;18.268;2022-12-10T04:56:37;44.88;;;16.10;;
55497;SDS011;41357;52.806;18.268;2022-12-10T04:59:04;49.35;;;19.02;;
55497;SDS011;41357;52.806;18.268;2022-12-10T05:01:30;48.92;;;17.65;;
55497;SDS011;41357;52.806;18.268;2022-12-10T05:04:00;38.47;;;15.15;;
55497;SDS011;41357;52.806;18.268;2022-12-10T05:06:27;55.90;;;19.70;;
55497;SDS011;41357;52.806;18.268;2022-12-10T05:08:53;51.97;;;19.27;;
55497;SDS011;41357;52.806;18.268;2022-12-10T05:11:20;52.50;;;18.20;;
55497;SDS011;41357;52.806;18.268;2022-12-10T05:13:46;45.17;;;17.02;;
55497;SDS011;41357;52.806;18.268;2022-12-10T05:16:14;51.50;;;20.13;;
55497;SDS011;41357;52.806;18.268;2022-12-10T05:18:41;30.58;;;10.82;;
55497;SDS011;41357;52.806;18.268;2022-12-10T05:21:09;47.63;;;15.32;;
55497;SDS011;41357;52.806;18.268;2022-12-10T05:23:36;44.55;;;17.27;;
55497;SDS011;41357;52.806;18.268;2022-12-10T05:26:04;47.38;;;17.27;;
55497;SDS011;41357;52.806;18.268;2022-12-10T05:28:31;49.92;;;19.60;;
55497;SDS011;41357;52.806;18.268;2022-12-10T05:30:58;54.78;;;20.00;;
55497;SDS011;41357;52.806;18.268;2022-12-10T05:33:24;39.35;;;16.88;;
55497;SDS011;41357;52.806;18.268;2022-12-10T05:35:51;47.53;;;17.80;;
55497;SDS011;41357;52.806;18.268;2022-12-10T05:38:17;46.78;;;17.75;;
55497;SDS011;41357;52.806;18.268;2022-12-10T05:40:43;46.65;;;17.88;;
55497;SDS011;41357;52.806;18.268;2022-12-10T05:43:10;42.45;;;16.60;;
55497;SDS011;41357;52.806;18.268;2022-12-10T05:45:36;41.10;;;17.30;;
55497;SDS011;41357;52.806;18.268;2022-12-10T05:48:03;51.38;;;17.85;;
55497;SDS011;41357;52.806;18.268;2022-12-10T05:50:30;45.38;;;17.17;;
55497;SDS011;41357;52.806;18.268;2022-12-10T05:52:56;44.83;;;16.10;;
55497;SDS011;41357;52.806;18.268;2022-12-10T05:55:23;42.85;;;17.13;;
55497;SDS011;41357;52.806;18.268;2022-12-10T05:57:50;51.38;;;17.42;;
55497;SDS011;41357;52.806;18.268;2022-12-10T06:00:16;44.92;;;16.50;;
55497;SDS011;41357;52.806;18.268;2022-12-10T06:02:42;51.75;;;19.00;;
55497;SDS011;41357;52.806;18.268;2022-12-10T06:05:08;36.50;;;16.17;;
55497;SDS011;41357;52.806;18.268;2022-12-10T06:07:34;44.75;;;16.88;;
55497;SDS011;41357;52.806;18.268;2022-12-10T06:10:00;41.75;;;17.52;;
55497;SDS011;41357;52.806;18.268;2022-12-10T06:12:27;45.33;;;17.58;;
55497;SDS011;41357;52.806;18.268;2022-12-10T06:14:53;49.22;;;18.45;;
55497;SDS011;41357;52.806;18.268;2022-12-10T06:17:19;43.42;;;16.30;;
55497;SDS011;41357;52.806;18.268;2022-12-10T06:19:45;44.17;;;16.25;;
55497;SDS011;41357;52.806;18.268;2022-12-10T06:22:11;44.97;;;17.40;;
55497;SDS011;41357;52.806;18.268;2022-12-10T06:24:37;51.58;;;18.02;;
55497;SDS011;41357;52.806;18.268;2022-12-10T06:27:03;37.65;;;16.75;;
55497;SDS011;41357;52.806;18.268;2022-12-10T06:29:30;40.35;;;14.82;;
55497;SDS011;41357;52.806;18.268;2022-12-10T06:31:56;50.58;;;18.17;;
55497;SDS011;41357;52.806;18.268;2022-12-10T06:34:22;51.47;;;18.52;;
55497;SDS011;41357;52.806;18.268;2022-12-10T06:36:48;55.17;;;19.52;;
55497;SDS011;41357;52.806;18.268;2022-12-10T06:39:14;53.67;;;19.90;;
55497;SDS011;41357;52.806;18.268;2022-12-10T06:41:41;44.95;;;18.30;;
55497;SDS011;41357;52.806;18.268;2022-12-10T06:44:09;41.75;;;17.23;;
55497;SDS011;41357;52.806;18.268;2022-12-10T06:46:35;45.25;;;16.23;;
55497;SDS011;41357;52.806;18.268;2022-12-10T06:49:02;41.50;;;17.40;;
55497;SDS011;41357;52.806;18.268;2022-12-10T06:51:29;33.42;;;14.88;;
55497;SDS011;41357;52.806;18.268;2022-12-10T06:53:55;39.28;;;16.10;;
55497;SDS011;41357;52.806;18.268;2022-12-10T06:56:21;40.78;;;16.45;;
55497;SDS011;41357;52.806;18.268;2022-12-10T06:58:48;42.67;;;16.05;;
55497;SDS011;41357;52.806;18.268;2022-12-10T07:01:18;46.17;;;17.63;;
55497;SDS011;41357;52.806;18.268;2022-12-10T07:03:47;41.83;;;15.88;;
55497;SDS011;41357;52.806;18.268;2022-12-10T07:06:13;38.83;;;16.17;;
55497;SDS011;41357;52.806;18.268;2022-12-10T07:08:39;40.30;;;16.73;;
55497;SDS011;41357;52.806;18.268;2022-12-10T07:11:06;42.08;;;17.77;;
55497;SDS011;41357;52.806;18.268;2022-12-10T07:13:33;39.33;;;15.52;;
55497;SDS011;41357;52.806;18.268;2022-12-10T07:15:59;40.80;;;14.40;;
55497;SDS011;41357;52.806;18.268;2022-12-10T07:18:25;41.72;;;15.10;;
55497;SDS011;41357;52.806;18.268;2022-12-10T07:20:52;37.50;;;15.55;;
55497;SDS011;41357;52.806;18.268;2022-12-10T07:23:18;36.10;;;14.05;;
55497;SDS011;41357;52.806;18.268;2022-12-10T07:25:45;38.25;;;15.15;;
55497;SDS011;41357;52.806;18.268;2022-12-10T07:28:11;31.33;;;13.05;;
55497;SDS011;41357;52.806;18.268;2022-12-10T07:30:37;29.55;;;12.88;;
55497;SDS011;41357;52.806;18.268;2022-12-10T07:33:03;24.15;;;11.15;;
55497;SDS011;41357;52.806;18.268;2022-12-10T07:35:30;36.63;;;13.43;;
55497;SDS011;41357;52.806;18.268;2022-12-10T07:37:56;36.67;;;14.63;;
55497;SDS011;41357;52.806;18.268;2022-12-10T07:40:22;35.38;;;13.80;;
55497;SDS011;41357;52.806;18.268;2022-12-10T07:42:48;36.67;;;13.43;;
55497;SDS011;41357;52.806;18.268;2022-12-10T07:45:15;33.72;;;12.60;;
55497;SDS011;41357;52.806;18.268;2022-12-10T07:47:41;35.03;;;13.02;;
55497;SDS011;41357;52.806;18.268;2022-12-10T07:50:07;36.28;;;12.93;;
55497;SDS011;41357;52.806;18.268;2022-12-10T07:52:33;33.72;;;13.65;;
55497;SDS011;41357;52.806;18.268;2022-12-10T07:54:59;24.50;;;11.73;;
55497;SDS011;41357;52.806;18.268;2022-12-10T07:57:26;26.58;;;10.57;;
55497;SDS011;41357;52.806;18.268;2022-12-10T07:59:54;28.33;;;11.93;;
55497;SDS011;41357;52.806;18.268;2022-12-10T08:02:20;31.63;;;11.98;;
55497;SDS011;41357;52.806;18.268;2022-12-10T08:04:46;31.75;;;12.88;;
55497;SDS011;41357;52.806;18.268;2022-12-10T08:07:12;35.30;;;14.27;;
55497;SDS011;41357;52.806;18.268;2022-12-10T08:09:38;34.03;;;13.15;;
55497;SDS011;41357;52.806;18.268;2022-12-10T08:12:04;32.50;;;12.57;;
55497;SDS011;41357;52.806;18.268;2022-12-10T08:14:31;32.78;;;12.57;;
55497;SDS011;41357;52.806;18.268;2022-12-10T08:16:57;30.13;;;11.27;;
55497;SDS011;41357;52.806;18.268;2022-12-10T08:19:23;31.83;;;12.73;;
55497;SDS011;41357;52.806;18.268;2022-12-10T08:21:49;32.67;;;13.77;;
55497;SDS011;41357;52.806;18.268;2022-12-10T08:24:15;32.80;;;13.27;;
55497;SDS011;41357;52.806;18.268;2022-12-10T08:26:41;32.53;;;13.20;;
55497;SDS011;41357;52.806;18.268;2022-12-10T08:29:07;36.00;;;14.07;;
55497;SDS011;41357;52.806;18.268;2022-12-10T08:31:34;34.88;;;13.52;;
55497;SDS011;41357;52.806;18.268;2022-12-10T08:34:00;38.33;;;14.88;;
55497;SDS011;41357;52.806;18.268;2022-12-10T08:36:26;40.65;;;15.82;;
55497;SDS011;41357;52.806;18.268;2022-12-10T08:38:52;34.75;;;14.90;;
55497;SDS011;41357;52.806;18.268;2022-12-10T08:41:20;36.85;;;14.05;;
55497;SDS011;41357;52.806;18.268;2022-12-10T08:43:46;35.88;;;16.23;;
55497;SDS011;41357;52.806;18.268;2022-12-10T08:46:13;47.85;;;18.67;;
55497;SDS011;41357;52.806;18.268;2022-12-10T08:48:40;34.13;;;13.45;;
55497;SDS011;41357;52.806;18.268;2022-12-10T08:51:07;31.33;;;13.35;;
55497;SDS011;41357;52.806;18.268;2022-12-10T08:53:33;32.90;;;13.73;;
55497;SDS011;41357;52.806;18.268;2022-12-10T08:55:59;33.25;;;13.35;;
55497;SDS011;41357;52.806;18.268;2022-12-10T08:58:26;33.92;;;13.00;;
55497;SDS011;41357;52.806;18.268;2022-12-10T09:00:52;30.73;;;11.55;;
55497;SDS011;41357;52.806;18.268;2022-12-10T09:03:18;31.83;;;13.65;;
55497;SDS011;41357;52.806;18.268;2022-12-10T09:05:44;30.45;;;12.52;;
55497;SDS011;41357;52.806;18.268;2022-12-10T09:08:11;28.80;;;12.02;;
55497;SDS011;41357;52.806;18.268;2022-12-10T09:10:38;32.58;;;13.70;;
55497;SDS011;41357;52.806;18.268;2022-12-10T09:13:04;27.25;;;11.20;;
55497;SDS011;41357;52.806;18.268;2022-12-10T09:15:30;22.95;;;10.82;;
55497;SDS011;41357;52.806;18.268;2022-12-10T09:17:57;30.33;;;11.80;;
55497;SDS011;41357;52.806;18.268;2022-12-10T09:20:23;29.83;;;11.40;;
55497;SDS011;41357;52.806;18.268;2022-12-10T09:22:49;25.73;;;9.80;;
55497;SDS011;41357;52.806;18.268;2022-12-10T09:25:15;25.45;;;10.13;;
55497;SDS011;41357;52.806;18.268;2022-12-10T09:27:42;24.48;;;11.43;;
55497;SDS011;41357;52.806;18.268;2022-12-10T09:30:08;32.20;;;12.00;;
55497;SDS011;41357;52.806;18.268;2022-12-10T09:32:35;30.25;;;11.57;;
55497;SDS011;41357;52.806;18.268;2022-12-10T09:35:01;29.58;;;12.50;;
55497;SDS011;41357;52.806;18.268;2022-12-10T09:37:27;34.65;;;13.35;;
55497;SDS011;41357;52.806;18.268;2022-12-10T09:39:53;25.67;;;10.50;;
55497;SDS011;41357;52.806;18.268;2022-12-10T09:47:53;20.88;;;9.70;;
55497;SDS011;41357;52.806;18.268;2022-12-10T09:50:26;24.75;;;10.40;;
55497;SDS011;41357;52.806;18.268;2022-12-10T09:52:54;18.13;;;5.97;;
55497;SDS011;41357;52.806;18.268;2022-12-10T09:55:26;19.55;;;9.32;;
55497;SDS011;41357;52.806;18.268;2022-12-10T09:57:53;27.67;;;11.63;;
55497;SDS011;41357;52.806;18.268;2022-12-10T10:02:46;24.73;;;10.80;;
55497;SDS011;41357;52.806;18.268;2022-12-10T10:05:15;23.30;;;10.32;;
55497;SDS011;41357;52.806;18.268;2022-12-10T10:07:44;24.33;;;11.05;;
55497;SDS011;41357;52.806;18.268;2022-12-10T10:10:18;23.80;;;10.20;;
55497;SDS011;41357;52.806;18.268;2022-12-10T10:12:45;24.52;;;9.70;;
55497;SDS011;41357;52.806;18.268;2022-12-10T10:15:19;25.45;;;10.38;;
55497;SDS011;41357;52.806;18.268;2022-12-10T10:17:47;21.67;;;10.77;;
55497;SDS011;41357;52.806;18.268;2022-12-10T10:20:14;22.65;;;11.07;;
55497;SDS011;41357;52.806;18.268;2022-12-10T10:22:41;21.50;;;10.05;;
55497;SDS011;41357;52.806;18.268;2022-12-10T10:25:12;16.38;;;7.80;;
55497;SDS011;41357;52.806;18.268;2022-12-10T10:27:40;15.27;;;6.25;;
55497;SDS011;41357;52.806;18.268;2022-12-10T10:30:06;25.23;;;10.23;;
55497;SDS011;41357;52.806;18.268;2022-12-10T10:35:02;20.80;;;9.75;;
55497;SDS011;41357;52.806;18.268;2022-12-10T10:37:30;28.48;;;12.25;;
55497;SDS011;41357;52.806;18.268;2022-12-10T10:39:57;20.75;;;9.95;;
55497;SDS011;41357;52.806;18.268;2022-12-10T10:44:49;23.17;;;9.82;;
55497;SDS011;41357;52.806;18.268;2022-12-10T10:47:29;23.35;;;12.45;;
55497;SDS011;41357;52.806;18.268;2022-12-10T10:49:56;25.95;;;11.80;;
55497;SDS011;41357;52.806;18.268;2022-12-10T10:52:23;20.73;;;10.68;;
55497;SDS011;41357;52.806;18.268;2022-12-10T10:54:53;27.00;;;12.20;;
55497;SDS011;41357;52.806;18.268;2022-12-10T10:57:21;25.50;;;11.85;;
55497;SDS011;41357;52.806;18.268;2022-12-10T10:59:48;31.25;;;12.57;;
55497;SDS011;41357;52.806;18.268;2022-12-10T11:02:32;21.40;;;10.88;;
55497;SDS011;41357;52.806;18.268;2022-12-10T11:05:03;28.65;;;11.30;;
55497;SDS011;41357;52.806;18.268;2022-12-10T11:07:34;22.67;;;10.70;;
55497;SDS011;41357;52.806;18.268;2022-12-10T11:10:04;23.08;;;11.30;;
55497;SDS011;41357;52.806;18.268;2022-12-10T11:12:41;27.38;;;11.20;;
55497;SDS011;41357;52.806;18.268;2022-12-10T11:17:40;19.73;;;9.35;;
55497;SDS011;41357;52.806;18.268;2022-12-10T11:25:16;24.95;;;11.05;;
55497;SDS011;41357;52.806;18.268;2022-12-10T11:30:14;25.10;;;10.77;;
55497;SDS011;41357;52.806;18.268;2022-12-10T11:32:57;24.65;;;11.57;;
55497;SDS011;41357;52.806;18.268;2022-12-10T11:38:20;25.20;;;10.63;;
55497;SDS011;41357;52.806;18.268;2022-12-10T11:56:34;24.70;;;9.15;;
55497;SDS011;41357;52.806;18.268;2022-12-10T11:59:16;29.33;;;12.40;;
55497;SDS011;41357;52.806;18.268;2022-12-10T12:01:50;26.88;;;11.05;;
55497;SDS011;41357;52.806;18.268;2022-12-10T12:14:43;25.73;;;11.35;;
55497;SDS011;41357;52.806;18.268;2022-12-10T12:17:24;21.85;;;9.18;;
55497;SDS011;41357;52.806;18.268;2022-12-10T12:20:14;19.30;;;8.83;;
55497;SDS011;41357;52.806;18.268;2022-12-10T12:22:42;26.27;;;10.68;;
55497;SDS011;41357;52.806;18.268;2022-12-10T12:25:16;22.45;;;10.15;;
55497;SDS011;41357;52.806;18.268;2022-12-10T12:28:00;27.45;;;11.38;;
55497;SDS011;41357;52.806;18.268;2022-12-10T12:30:29;24.20;;;11.10;;
55497;SDS011;41357;52.806;18.268;2022-12-10T12:35:42;27.48;;;10.63;;
55497;SDS011;41357;52.806;18.268;2022-12-10T12:40:40;30.30;;;12.95;;
55497;SDS011;41357;52.806;18.268;2022-12-10T12:43:16;27.23;;;11.25;;
55497;SDS011;41357;52.806;18.268;2022-12-10T12:45:45;26.08;;;12.02;;
55497;SDS011;41357;52.806;18.268;2022-12-10T12:48:18;16.75;;;8.10;;
55497;SDS011;41357;52.806;18.268;2022-12-10T12:53:14;17.73;;;9.23;;
55497;SDS011;41357;52.806;18.268;2022-12-10T12:56:44;28.70;;;10.77;;
55497;SDS011;41357;52.806;18.268;2022-12-10T13:00:59;24.95;;;11.75;;
55497;SDS011;41357;52.806;18.268;2022-12-10T13:03:38;24.75;;;11.38;;
55497;SDS011;41357;52.806;18.268;2022-12-10T13:06:12;25.73;;;11.20;;
55497;SDS011;41357;52.806;18.268;2022-12-10T13:08:42;28.10;;;12.73;;
55497;SDS011;41357;52.806;18.268;2022-12-10T13:13:38;30.30;;;11.68;;
55497;SDS011;41357;52.806;18.268;2022-12-10T13:18:53;27.60;;;11.30;;
55497;SDS011;41357;52.806;18.268;2022-12-10T13:21:36;29.83;;;10.70;;
55497;SDS011;41357;52.806;18.268;2022-12-10T13:24:41;30.73;;;12.80;;
55497;SDS011;41357;52.806;18.268;2022-12-10T13:42:38;28.23;;;13.68;;
55497;SDS011;41357;52.806;18.268;2022-12-10T13:47:53;38.20;;;12.57;;
55497;SDS011;41357;52.806;18.268;2022-12-10T14:00:31;34.70;;;15.50;;
55497;SDS011;41357;52.806;18.268;2022-12-10T14:03:09;41.22;;;16.58;;
55497;SDS011;41357;52.806;18.268;2022-12-10T14:05:42;33.00;;;13.32;;
55497;SDS011;41357;52.806;18.268;2022-12-10T14:08:17;32.47;;;14.40;;
55497;SDS011;41357;52.806;18.268;2022-12-10T14:10:44;41.72;;;15.82;;
55497;SDS011;41357;52.806;18.268;2022-12-10T14:13:11;17.65;;;8.32;;
55497;SDS011;41357;52.806;18.268;2022-12-10T14:15:38;32.72;;;13.88;;
55497;SDS011;41357;52.806;18.268;2022-12-10T14:18:08;36.40;;;14.43;;
55497;SDS011;41357;52.806;18.268;2022-12-10T14:20:35;35.85;;;15.90;;
55497;SDS011;41357;52.806;18.268;2022-12-10T14:23:02;38.88;;;16.30;;
55497;SDS011;41357;52.806;18.268;2022-12-10T14:25:55;41.45;;;17.85;;
55497;SDS011;41357;52.806;18.268;2022-12-10T14:28:21;34.83;;;15.27;;
55497;SDS011;41357;52.806;18.268;2022-12-10T14:30:48;36.28;;;15.40;;
55497;SDS011;41357;52.806;18.268;2022-12-10T14:33:15;45.47;;;18.20;;
55497;SDS011;41357;52.806;18.268;2022-12-10T14:35:42;39.75;;;18.02;;
55497;SDS011;41357;52.806;18.268;2022-12-10T14:38:16;33.90;;;13.90;;
55497;SDS011;41357;52.806;18.268;2022-12-10T14:40:44;29.42;;;14.82;;
55497;SDS011;41357;52.806;18.268;2022-12-10T14:45:56;30.13;;;13.48;;
55497;SDS011;41357;52.806;18.268;2022-12-10T14:48:24;29.55;;;12.68;;
55497;SDS011;41357;52.806;18.268;2022-12-10T14:50:50;27.98;;;13.07;;
55497;SDS011;41357;52.806;18.268;2022-12-10T14:53:22;30.67;;;12.25;;
55497;SDS011;41357;52.806;18.268;2022-12-10T14:55:49;33.50;;;13.20;;
55497;SDS011;41357;52.806;18.268;2022-12-10T14:58:18;27.63;;;12.23;;
55497;SDS011;41357;52.806;18.268;2022-12-10T15:00:45;25.55;;;12.55;;
55497;SDS011;41357;52.806;18.268;2022-12-10T15:03:17;27.20;;;11.07;;
55497;SDS011;41357;52.806;18.268;2022-12-10T15:05:53;27.48;;;11.18;;
55497;SDS011;41357;52.806;18.268;2022-12-10T15:08:20;25.90;;;10.68;;
55497;SDS011;41357;52.806;18.268;2022-12-10T15:10:49;21.27;;;9.93;;
55497;SDS011;41357;52.806;18.268;2022-12-10T15:13:20;20.08;;;9.27;;
55497;SDS011;41357;52.806;18.268;2022-12-10T15:15:47;27.95;;;11.55;;
55497;SDS011;41357;52.806;18.268;2022-12-10T15:18:47;25.38;;;11.10;;
55497;SDS011;41357;52.806;18.268;2022-12-10T15:21:13;24.83;;;10.90;;
55497;SDS011;41357;52.806;18.268;2022-12-10T15:23:41;33.38;;;11.85;;
55497;SDS011;41357;52.806;18.268;2022-12-10T15:26:41;28.73;;;11.23;;
55497;SDS011;41357;52.806;18.268;2022-12-10T15:31:45;22.50;;;10.95;;
55497;SDS011;41357;52.806;18.268;2022-12-10T15:34:12;26.90;;;12.05;;
55497;SDS011;41357;52.806;18.268;2022-12-10T15:44:26;28.33;;;10.73;;
55497;SDS011;41357;52.806;18.268;2022-12-10T15:47:00;31.10;;;12.98;;
55497;SDS011;41357;52.806;18.268;2022-12-10T15:49:27;29.10;;;10.65;;
55497;SDS011;41357;52.806;18.268;2022-12-10T15:51:53;32.55;;;12.80;;
55497;SDS011;41357;52.806;18.268;2022-12-10T15:56:48;35.35;;;14.00;;
55497;SDS011;41357;52.806;18.268;2022-12-10T15:59:14;33.22;;;14.35;;
55497;SDS011;41357;52.806;18.268;2022-12-10T16:01:41;32.20;;;15.02;;
55497;SDS011;41357;52.806;18.268;2022-12-10T16:04:07;29.80;;;13.75;;
55497;SDS011;41357;52.806;18.268;2022-12-10T16:06:33;31.17;;;12.88;;
55497;SDS011;41357;52.806;18.268;2022-12-10T16:09:00;34.85;;;14.18;;
55497;SDS011;41357;52.806;18.268;2022-12-10T16:11:26;33.28;;;14.57;;
55497;SDS011;41357;52.806;18.268;2022-12-10T16:13:53;32.17;;;14.13;;
55497;SDS011;41357;52.806;18.268;2022-12-10T16:16:22;29.77;;;14.27;;
55497;SDS011;41357;52.806;18.268;2022-12-10T16:18:48;35.95;;;17.17;;
55497;SDS011;41357;52.806;18.268;2022-12-10T16:21:15;42.53;;;18.00;;
55497;SDS011;41357;52.806;18.268;2022-12-10T16:23:41;38.95;;;14.52;;
55497;SDS011;41357;52.806;18.268;2022-12-10T16:26:18;43.88;;;17.98;;
55497;SDS011;41357;52.806;18.268;2022-12-10T16:28:45;53.92;;;18.42;;